createdAt,value
2023-02-27T00:02:58.401Z,99194.59
2023-02-27T00:06:00.710Z,99195.00
2023-02-27T00:09:03.781Z,99197.62
2023-02-27T00:12:06.270Z,99188.00
2023-02-27T00:15:11.525Z,99185.81
2023-02-27T00:18:13.794Z,99198.84
2023-02-27T00:21:15.987Z,99210.66
2023-02-27T00:24:18.255Z,99207.53
2023-02-27T00:27:20.439Z,99216.00
2023-02-27T00:30:22.666Z,99221.63
2023-02-27T00:33:24.839Z,99215.87
2023-02-27T00:36:27.019Z,99224.22
2023-02-27T00:39:29.308Z,99228.06
2023-02-27T00:42:32.172Z,99228.63
2023-02-27T00:45:34.350Z,99234.41
2023-02-27T00:48:36.792Z,99234.78
2023-02-27T00:51:39.848Z,99232.47
2023-02-27T00:54:42.135Z,99232.13
2023-02-27T00:57:44.422Z,99234.41
2023-02-27T01:00:46.646Z,99237.09
2023-02-27T01:03:48.890Z,99239.97
2023-02-27T01:06:51.441Z,99242.53
2023-02-27T01:09:53.663Z,99244.47
2023-02-27T01:12:55.789Z,99256.13
2023-02-27T01:15:58.071Z,99257.09
2023-02-27T01:19:00.276Z,99260.34
2023-02-27T01:22:02.533Z,99259.59
2023-02-27T01:25:05.057Z,99253.69
2023-02-27T01:28:07.238Z,99262.47
2023-02-27T01:31:09.456Z,99265.91
2023-02-27T01:34:11.703Z,99270.13
2023-02-27T01:37:14.632Z,99268.19
2023-02-27T01:40:16.830Z,99266.28
2023-02-27T01:43:21.225Z,99276.28
2023-02-27T01:46:24.063Z,99273.94
2023-02-27T01:49:32.137Z,99276.31
2023-02-27T01:52:34.869Z,99272.62
2023-02-27T01:55:39.271Z,99278.09
2023-02-27T01:58:43.151Z,99278.88
2023-02-27T02:01:45.642Z,99266.94
2023-02-27T02:04:48.473Z,99267.63
2023-02-27T02:07:50.835Z,99273.09
2023-02-27T02:10:53.800Z,99265.84
2023-02-27T02:13:59.483Z,99265.56
2023-02-27T02:17:30.733Z,99270.66
2023-02-27T02:20:52.424Z,99270.78
2023-02-27T02:24:03.199Z,99276.69
2023-02-27T02:27:08.411Z,99281.91
2023-02-27T02:30:29.844Z,99282.59
2023-02-27T02:33:50.716Z,99293.97
2023-02-27T02:37:14.137Z,99300.31
2023-02-27T02:40:31.663Z,99300.06
2023-02-27T02:43:48.801Z,99313.94
2023-02-27T02:47:08.348Z,99311.31
2023-02-27T02:50:14.239Z,99315.19
2023-02-27T02:53:37.685Z,99322.44
2023-02-27T02:56:46.602Z,99319.28
2023-02-27T02:59:55.453Z,99326.00
2023-02-27T03:03:12.374Z,99325.31
2023-02-27T03:06:18.798Z,99328.34
2023-02-27T03:09:31.782Z,99329.19
2023-02-27T03:12:34.118Z,99334.03
2023-02-27T03:15:49.556Z,99333.34
2023-02-27T03:19:01.726Z,99333.56
2023-02-27T03:22:13.741Z,99330.13
2023-02-27T03:25:16.076Z,99331.91
2023-02-27T03:28:22.187Z,99334.38
2023-02-27T03:31:50.966Z,99341.25
2023-02-27T03:34:53.269Z,99343.03
2023-02-27T03:38:01.930Z,99347.44
2023-02-27T03:41:30.299Z,99354.06
2023-02-27T03:44:40.728Z,99358.69
2023-02-27T03:47:42.954Z,99356.69
2023-02-27T03:50:45.320Z,99355.84
2023-02-27T03:54:09.480Z,99355.13
2023-02-27T03:57:15.216Z,99361.06
2023-02-27T04:00:22.671Z,99365.19
2023-02-27T04:03:25.337Z,99366.72
2023-02-27T04:06:56.779Z,99368.09
2023-02-27T04:10:21.440Z,99368.09
2023-02-27T04:13:26.716Z,99380.62
2023-02-27T04:16:51.268Z,99381.44
2023-02-27T04:20:14.834Z,99375.78
2023-02-27T04:23:41.030Z,99381.72
2023-02-27T04:26:48.522Z,99382.97
2023-02-27T04:29:58.213Z,99383.22
2023-02-27T04:33:10.632Z,99380.31
2023-02-27T04:36:36.413Z,99384.84
2023-02-27T04:40:02.808Z,99390.34
2023-02-27T04:43:07.707Z,99393.34
2023-02-27T04:46:13.267Z,99393.50
2023-02-27T04:49:19.497Z,99399.72
2023-02-27T04:52:31.293Z,99403.91
2023-02-27T04:55:37.296Z,99406.28
2023-02-27T04:58:50.652Z,99408.31
2023-02-27T05:02:24.933Z,99408.56
2023-02-27T05:05:30.663Z,99407.06
2023-02-27T05:08:43.788Z,99411.31
2023-02-27T05:12:02.246Z,99419.97
2023-02-27T05:15:13.094Z,99424.66
2023-02-27T05:18:18.498Z,99435.34
2023-02-27T05:21:29.643Z,99447.00
2023-02-27T05:24:49.865Z,99447.81
2023-02-27T05:28:02.238Z,99456.22
2023-02-27T05:31:04.512Z,99456.25
2023-02-27T05:34:12.384Z,99460.91
2023-02-27T05:37:30.863Z,99468.41
2023-02-27T05:40:38.204Z,99468.16
2023-02-27T05:43:51.099Z,99472.16
2023-02-27T05:46:57.032Z,99468.66
2023-02-27T05:50:06.267Z,99474.13
2023-02-27T05:53:11.835Z,99478.13
2023-02-27T05:56:16.651Z,99482.44
2023-02-27T05:59:24.246Z,99494.75
2023-02-27T06:02:26.977Z,99494.41
2023-02-27T06:05:29.419Z,99491.69
2023-02-27T06:08:32.122Z,99491.69
2023-02-27T06:11:34.313Z,99501.75
2023-02-27T06:14:36.438Z,99509.34
2023-02-27T06:17:39.200Z,99510.31
2023-02-27T06:20:42.168Z,99501.88
2023-02-27T06:23:44.386Z,99514.88
2023-02-27T06:26:47.266Z,99511.91
2023-02-27T06:29:49.483Z,99517.81
2023-02-27T06:32:51.668Z,99532.84
2023-02-27T06:35:53.930Z,99530.09
2023-02-27T06:38:56.121Z,99537.06
2023-02-27T06:41:58.342Z,99540.75
2023-02-27T06:45:00.569Z,99557.88
2023-02-27T06:48:02.917Z,99563.41
2023-02-27T06:51:05.275Z,99570.66
2023-02-27T06:54:08.162Z,99579.66
2023-02-27T06:57:10.388Z,99582.91
2023-02-27T07:00:13.281Z,99585.91
2023-02-27T07:03:15.495Z,99593.06
2023-02-27T07:06:17.735Z,99596.37
2023-02-27T07:09:19.938Z,99608.12
2023-02-27T07:12:22.391Z,99603.69
2023-02-27T07:15:24.732Z,99606.63
2023-02-27T07:18:27.015Z,99610.75
2023-02-27T07:21:29.195Z,99607.31
2023-02-27T07:24:31.406Z,99610.31
2023-02-27T07:27:33.980Z,99613.06
2023-02-27T07:30:36.194Z,99620.31
2023-02-27T07:33:38.459Z,99606.44
2023-02-27T07:36:40.752Z,99618.38
2023-02-27T07:39:42.934Z,99615.59
2023-02-27T07:42:48.185Z,99614.19
2023-02-27T07:45:51.746Z,99619.97
2023-02-27T07:48:54.510Z,99621.13
2023-02-27T07:51:56.730Z,99629.28
2023-02-27T07:54:58.888Z,99629.78
2023-02-27T07:58:01.108Z,99631.06
2023-02-27T08:01:03.269Z,99640.88
2023-02-27T08:04:05.572Z,99638.56
2023-02-27T08:07:08.209Z,99632.91
2023-02-27T08:10:11.230Z,99638.78
2023-02-27T08:13:14.340Z,99636.91
2023-02-27T08:16:16.613Z,99633.34
2023-02-27T08:19:18.820Z,99644.25
2023-02-27T08:22:21.541Z,99642.06
2023-02-27T08:25:23.950Z,99644.25
2023-02-27T08:28:26.623Z,99639.69
2023-02-27T08:31:28.992Z,99648.47
2023-02-27T08:34:31.264Z,99649.72
2023-02-27T08:37:33.497Z,99659.09
2023-02-27T08:40:35.760Z,99658.56
2023-02-27T08:43:37.941Z,99666.78
2023-02-27T08:46:40.194Z,99676.03
2023-02-27T08:49:42.367Z,99682.28
2023-02-27T08:52:44.531Z,99677.44
2023-02-27T08:55:51.231Z,99682.41
2023-02-27T08:58:53.927Z,99694.16
2023-02-27T09:01:56.096Z,99692.22
2023-02-27T09:04:59.110Z,99704.63
2023-02-27T09:08:02.259Z,99713.84
2023-02-27T09:11:05.183Z,99718.28
2023-02-27T09:14:07.854Z,99717.59
2023-02-27T09:17:10.058Z,99714.28
2023-02-27T09:20:12.736Z,99722.00
2023-02-27T09:23:15.003Z,99725.31
2023-02-27T09:26:17.554Z,99725.31
2023-02-27T09:29:19.807Z,99730.41
2023-02-27T09:32:23.280Z,99714.69
2023-02-27T09:35:25.736Z,99731.22
2023-02-27T09:38:27.924Z,99731.12
2023-02-27T09:41:37.430Z,99728.63
2023-02-27T09:44:47.992Z,99728.91
2023-02-27T09:47:54.334Z,99728.38
2023-02-27T09:50:57.450Z,99734.28
2023-02-27T09:54:01.576Z,99722.97
2023-02-27T09:57:05.577Z,99729.19
2023-02-27T10:00:23.790Z,99742.25
2023-02-27T10:03:28.661Z,99728.22
2023-02-27T10:06:40.996Z,99726.16
2023-02-27T10:09:57.050Z,99722.00
2023-02-27T10:13:13.944Z,99727.37
2023-02-27T10:16:20.171Z,99720.88
2023-02-27T10:19:31.208Z,99726.28
2023-02-27T10:22:42.047Z,99729.13
2023-02-27T10:25:46.569Z,99734.13
2023-02-27T10:28:49.231Z,99733.56
2023-02-27T10:32:01.353Z,99720.97
2023-02-27T10:35:33.214Z,99724.75
2023-02-27T10:38:37.605Z,99734.13
2023-02-27T10:41:40.771Z,99726.41
2023-02-27T10:44:43.048Z,99726.47
2023-02-27T10:47:45.244Z,99738.09
2023-02-27T10:50:52.341Z,99728.84
2023-02-27T10:54:19.623Z,99734.09
2023-02-27T10:57:26.680Z,99725.78
2023-02-27T11:00:45.485Z,99726.28
2023-02-27T11:03:48.843Z,99719.16
2023-02-27T11:06:53.523Z,99730.84
2023-02-27T11:10:06.332Z,99728.06
2023-02-27T11:13:21.624Z,99724.56
2023-02-27T11:16:23.815Z,99725.38
2023-02-27T11:19:35.042Z,99727.37
2023-02-27T11:22:37.263Z,99727.59
2023-02-27T11:25:39.501Z,99732.16
2023-02-27T11:28:42.077Z,99739.34
2023-02-27T11:31:51.371Z,99737.19
2023-02-27T11:34:53.650Z,99737.59
2023-02-27T11:37:59.336Z,99727.47
2023-02-27T11:41:05.871Z,99739.78
2023-02-27T11:44:17.585Z,99733.50
2023-02-27T11:47:35.653Z,99725.34
2023-02-27T11:51:11.442Z,99735.56
2023-02-27T11:54:18.920Z,99738.97
2023-02-27T11:57:27.043Z,99738.75
2023-02-27T12:00:39.153Z,99738.03
2023-02-27T12:03:49.569Z,99739.41
2023-02-27T12:07:13.868Z,99741.81
2023-02-27T12:10:19.695Z,99737.78
2023-02-27T12:13:25.083Z,99737.72
2023-02-27T12:16:32.944Z,99730.16
2023-02-27T12:19:54.029Z,99731.38
2023-02-27T12:22:56.446Z,99743.25
2023-02-27T12:26:07.255Z,99740.91
2023-02-27T12:29:23.787Z,99753.75
2023-02-27T12:32:39.373Z,99749.63
2023-02-27T12:35:43.215Z,99758.19
2023-02-27T12:38:45.440Z,99755.25
2023-02-27T12:41:56.949Z,99755.44
2023-02-27T12:45:37.858Z,99767.88
2023-02-27T12:48:39.889Z,99757.91
2023-02-27T12:51:42.809Z,99761.22
2023-02-27T12:55:02.039Z,99760.59
2023-02-27T12:58:06.900Z,99765.28
2023-02-27T13:01:18.357Z,99769.19
2023-02-27T13:04:25.061Z,99767.75
2023-02-27T13:07:34.165Z,99773.00
2023-02-27T13:10:45.155Z,99773.63
2023-02-27T13:13:59.566Z,99775.91
2023-02-27T13:17:39.890Z,99777.97
2023-02-27T13:20:50.175Z,99776.19
2023-02-27T13:24:24.168Z,99772.00
2023-02-27T13:27:32.437Z,99764.84
2023-02-27T13:31:03.816Z,99762.66
2023-02-27T13:34:08.740Z,99773.91
2023-02-27T13:37:11.035Z,99773.47
2023-02-27T13:40:31.903Z,99777.44
2023-02-27T13:43:49.834Z,99781.81
2023-02-27T13:46:52.280Z,99787.75
2023-02-27T13:49:55.353Z,99781.31
2023-02-27T13:53:09.099Z,99783.66
2023-02-27T13:56:22.850Z,99783.03
2023-02-27T13:59:31.537Z,99789.16
2023-02-27T14:02:46.624Z,99788.19
2023-02-27T14:05:58.063Z,99784.25
2023-02-27T14:09:14.293Z,99786.47
2023-02-27T14:12:44.420Z,99784.47
2023-02-27T14:15:47.165Z,99785.22
2023-02-27T14:18:56.385Z,99777.84
2023-02-27T14:22:24.448Z,99783.25
2023-02-27T14:25:32.148Z,99782.66
2023-02-27T14:28:38.019Z,99782.28
2023-02-27T14:31:40.851Z,99787.75
2023-02-27T14:34:43.110Z,99791.00
2023-02-27T14:37:45.785Z,99792.78
2023-02-27T14:41:05.182Z,99790.75
2023-02-27T14:44:24.910Z,99793.16
2023-02-27T14:47:32.304Z,99788.06
2023-02-27T14:50:37.467Z,99788.91
2023-02-27T14:53:39.645Z,99790.13
2023-02-27T14:56:46.001Z,99796.16
2023-02-27T14:59:50.939Z,99793.66
2023-02-27T15:02:53.175Z,99797.75
2023-02-27T15:05:59.192Z,99810.87
2023-02-27T15:09:01.515Z,99810.56
2023-02-27T15:12:04.985Z,99815.16
2023-02-27T15:15:09.776Z,99816.25
2023-02-27T15:18:14.192Z,99821.78
2023-02-27T15:21:17.186Z,99825.00
2023-02-27T15:24:25.651Z,99834.88
2023-02-27T15:27:28.519Z,99836.13
2023-02-27T15:30:31.599Z,99843.66
2023-02-27T15:33:33.880Z,99842.75
2023-02-27T15:36:36.779Z,99851.47
2023-02-27T15:39:39.010Z,99862.81
2023-02-27T15:42:41.767Z,99859.62
2023-02-27T15:45:44.090Z,99867.25
2023-02-27T15:48:46.409Z,99871.09
2023-02-27T15:51:55.563Z,99869.88
2023-02-27T15:55:05.785Z,99869.47
2023-02-27T15:58:24.699Z,99879.16
2023-02-27T16:01:32.505Z,99872.50
2023-02-27T16:04:35.813Z,99879.41
2023-02-27T16:07:40.855Z,99881.50
2023-02-27T16:10:45.074Z,99882.34
2023-02-27T16:13:48.311Z,99891.47
2023-02-27T16:16:55.129Z,99893.53
2023-02-27T16:20:01.793Z,99902.81
2023-02-27T16:23:15.994Z,99911.47
2023-02-27T16:26:31.418Z,99909.41
2023-02-27T16:29:36.142Z,99919.34
2023-02-27T16:32:44.177Z,99925.00
2023-02-27T16:35:46.713Z,99921.94
2023-02-27T16:38:49.035Z,99936.84
2023-02-27T16:41:55.199Z,99947.31
2023-02-27T16:44:57.631Z,99952.19
2023-02-27T16:48:00.849Z,99949.88
2023-02-27T16:51:03.883Z,99960.03
2023-02-27T16:54:11.124Z,99960.69
2023-02-27T16:57:13.965Z,99967.12
2023-02-27T17:00:17.787Z,99973.91
2023-02-27T17:03:19.985Z,99976.66
2023-02-27T17:06:22.129Z,99977.38
2023-02-27T17:09:27.321Z,99987.97
2023-02-27T17:12:29.535Z,99991.34
2023-02-27T17:15:31.705Z,99992.22
2023-02-27T17:18:34.137Z,99994.59
2023-02-27T17:21:36.579Z,99992.25
2023-02-27T17:24:39.101Z,100000.94
2023-02-27T17:27:44.458Z,100002.78
2023-02-27T17:30:47.433Z,100004.31
2023-02-27T17:33:56.272Z,100008.72
2023-02-27T17:36:58.455Z,100008.34
2023-02-27T17:40:04.145Z,100013.81
2023-02-27T17:43:06.854Z,100003.84
2023-02-27T17:46:10.310Z,100011.44
2023-02-27T17:49:13.483Z,100016.63
2023-02-27T17:52:15.925Z,100023.09
2023-02-27T17:55:19.034Z,100033.34
2023-02-27T17:58:21.296Z,100042.69
2023-02-27T18:01:25.948Z,100036.63
2023-02-27T18:04:28.644Z,100049.94
2023-02-27T18:07:31.539Z,100044.84
2023-02-27T18:10:34.157Z,100048.72
2023-02-27T18:13:36.356Z,100051.22
2023-02-27T18:16:38.891Z,100052.91
2023-02-27T18:19:42.186Z,100058.47
2023-02-27T18:22:44.636Z,100057.56
2023-02-27T18:25:54.105Z,100066.34
2023-02-27T18:29:02.236Z,100063.59
2023-02-27T18:32:04.798Z,100073.09
2023-02-27T18:35:07.756Z,100077.25
2023-02-27T18:38:10.197Z,100079.03
2023-02-27T18:41:13.041Z,100070.97
2023-02-27T18:44:15.529Z,100077.13
2023-02-27T18:47:18.019Z,100071.19
2023-02-27T18:50:20.428Z,100072.13
2023-02-27T18:53:22.894Z,100062.47
2023-02-27T18:56:25.873Z,100076.81
2023-02-27T18:59:28.351Z,100071.63
2023-02-27T19:02:30.851Z,100088.09
2023-02-27T19:05:33.095Z,100076.00
2023-02-27T19:08:35.573Z,100090.84
2023-02-27T19:11:38.179Z,100094.53
2023-02-27T19:14:41.191Z,100099.56
2023-02-27T19:17:43.732Z,100099.75
2023-02-27T19:20:46.181Z,100114.41
2023-02-27T19:23:48.647Z,100109.59
2023-02-27T19:26:53.358Z,100112.25
2023-02-27T19:29:56.025Z,100122.16
2023-02-27T19:32:58.819Z,100122.66
2023-02-27T19:36:29.059Z,100130.38
2023-02-27T19:39:32.004Z,100143.22
2023-02-27T19:42:34.569Z,100148.59
2023-02-27T19:45:40.756Z,100147.44
2023-02-27T19:48:44.069Z,100146.38
2023-02-27T19:51:47.577Z,100150.81
2023-02-27T19:54:49.727Z,100138.31
2023-02-27T19:57:52.299Z,100142.53
2023-02-27T20:00:54.859Z,100130.16
2023-02-27T20:03:59.124Z,100131.00
2023-02-27T20:07:01.670Z,100128.84
2023-02-27T20:10:05.705Z,100134.28
2023-02-27T20:13:08.493Z,100137.72
2023-02-27T20:16:13.985Z,100141.53
2023-02-27T20:19:17.951Z,100145.47
2023-02-27T20:22:20.367Z,100148.06
2023-02-27T20:25:22.576Z,100166.63
2023-02-27T20:28:25.688Z,100173.78
2023-02-27T20:31:30.621Z,100185.22
2023-02-27T20:34:33.896Z,100180.41
2023-02-27T20:37:36.273Z,100177.09
2023-02-27T20:40:38.756Z,100181.34
2023-02-27T20:43:44.916Z,100180.97
2023-02-27T20:46:49.283Z,100176.16
2023-02-27T20:49:51.841Z,100172.91
2023-02-27T20:52:55.086Z,100185.75
2023-02-27T20:55:57.540Z,100195.16
2023-02-27T20:59:02.182Z,100194.91
2023-02-27T21:02:07.016Z,100207.88
2023-02-27T21:05:09.430Z,100215.22
2023-02-27T21:08:11.800Z,100220.25
2023-02-27T21:11:19.942Z,100226.25
2023-02-27T21:14:23.466Z,100222.81
2023-02-27T21:17:26.276Z,100223.59
2023-02-27T21:20:28.629Z,100219.19
2023-02-27T21:23:31.093Z,100229.41
2023-02-27T21:26:37.859Z,100228.47
2023-02-27T21:29:40.334Z,100241.44
2023-02-27T21:32:42.625Z,100238.38
2023-02-27T21:35:46.667Z,100234.56
2023-02-27T21:38:49.132Z,100247.09
2023-02-27T21:41:51.737Z,100244.72
2023-02-27T21:44:54.106Z,100255.91
2023-02-27T21:47:56.283Z,100243.16
2023-02-27T21:50:59.498Z,100244.63
2023-02-27T21:54:03.107Z,100243.50
2023-02-27T21:57:05.516Z,100250.13
2023-02-27T22:00:11.159Z,100242.84
2023-02-27T22:03:13.453Z,100234.94
2023-02-27T22:06:15.797Z,100231.31
2023-02-27T22:09:18.287Z,100227.50
2023-02-27T22:12:22.002Z,100232.84
2023-02-27T22:15:24.197Z,100239.09
2023-02-27T22:18:26.969Z,100234.56
2023-02-27T22:21:29.366Z,100228.31
2023-02-27T22:24:31.786Z,100224.78
2023-02-27T22:27:33.970Z,100220.34
2023-02-27T22:30:36.270Z,100226.94
2023-02-27T22:33:39.673Z,100228.75
2023-02-27T22:36:41.906Z,100219.16
2023-02-27T22:39:44.109Z,100220.72
2023-02-27T22:42:48.037Z,100223.41
2023-02-27T22:45:50.447Z,100224.06
2023-02-27T22:49:01.142Z,100222.63
2023-02-27T22:52:03.477Z,100220.66
2023-02-27T22:55:06.240Z,100207.00
2023-02-27T22:58:08.387Z,100222.44
2023-02-27T23:01:22.011Z,100227.31
2023-02-27T23:04:24.272Z,100236.28
2023-02-27T23:07:26.632Z,100235.09
2023-02-27T23:10:28.783Z,100235.91
2023-02-27T23:13:32.182Z,100240.25
2023-02-27T23:16:34.532Z,100249.50
2023-02-27T23:19:36.738Z,100249.16
2023-02-27T23:22:38.912Z,100244.31
2023-02-27T23:25:41.206Z,100251.34
2023-02-27T23:28:43.416Z,100248.72
2023-02-27T23:31:45.746Z,100268.09
2023-02-27T23:34:49.847Z,100256.50
2023-02-27T23:37:56.659Z,100256.50
2023-02-27T23:41:05.089Z,100258.94
2023-02-27T23:44:07.313Z,100270.69
2023-02-27T23:47:09.494Z,100264.50
2023-02-27T23:50:12.514Z,100269.59
2023-02-27T23:53:15.082Z,100261.69
2023-02-27T23:56:21.632Z,100257.59
2023-02-27T23:59:23.796Z,100255.91
